createdAt,value
2022-12-19T00:03:59.279Z,101315.31
2022-12-19T00:09:07.663Z,101310.92
2022-12-19T00:14:15.416Z,101309.16
2022-12-19T00:19:22.913Z,101300.10
2022-12-19T00:24:30.167Z,101298.50
2022-12-19T00:29:38.113Z,101296.34
2022-12-19T00:34:45.743Z,101303.70
2022-12-19T00:39:53.300Z,101300.13
2022-12-19T00:45:00.697Z,101299.25
2022-12-19T00:50:09.785Z,101293.54
2022-12-19T00:55:19.413Z,101293.23
2022-12-19T01:00:27.054Z,101292.20
2022-12-19T01:05:34.467Z,101297.48
2022-12-19T01:10:48.365Z,101287.20
2022-12-19T01:15:55.618Z,101271.65
2022-12-19T01:21:04.876Z,101256.36
2022-12-19T01:26:12.243Z,101258.91
2022-12-19T01:31:20.071Z,101245.92
2022-12-19T01:36:27.385Z,101243.39
2022-12-19T01:43:49.466Z,101225.80
2022-12-19T01:48:57.016Z,101221.66
2022-12-19T01:54:09.343Z,101214.98
2022-12-19T01:59:20.785Z,101222.19
2022-12-19T02:04:49.315Z,101212.61
2022-12-19T02:09:58.391Z,101210.17
2022-12-19T02:15:11.951Z,101198.98
2022-12-19T02:20:45.540Z,101192.79
2022-12-19T02:26:28.249Z,101190.88
2022-12-19T02:31:41.017Z,101183.67
2022-12-19T02:36:53.558Z,101174.96
2022-12-19T02:42:04.982Z,101167.88
2022-12-19T02:47:13.894Z,101168.24
2022-12-19T02:52:51.616Z,101163.69
2022-12-19T02:58:29.868Z,101150.08
2022-12-19T03:03:48.541Z,101143.45
2022-12-19T03:09:02.763Z,101139.56
2022-12-19T03:14:14.053Z,101127.72
2022-12-19T03:19:21.253Z,101123.09
2022-12-19T03:24:56.529Z,101121.74
2022-12-19T03:30:07.396Z,101115.70
2022-12-19T03:35:19.999Z,101115.74
2022-12-19T03:40:30.594Z,101123.49
2022-12-19T03:45:56.846Z,101121.48
2022-12-19T03:51:27.894Z,101131.38
2022-12-19T03:56:42.916Z,101138.95
2022-12-19T04:01:51.521Z,101142.91
2022-12-19T04:07:00.299Z,101144.07
2022-12-19T04:12:11.549Z,101139.98
2022-12-19T04:17:27.004Z,101141.23
2022-12-19T04:22:37.644Z,101131.35
2022-12-19T04:27:52.927Z,101131.23
2022-12-19T04:33:01.140Z,101120.76
2022-12-19T04:38:09.258Z,101108.38
2022-12-19T04:43:17.207Z,101099.17
2022-12-19T04:48:24.643Z,101089.92
2022-12-19T04:53:32.795Z,101088.21
2022-12-19T04:58:40.158Z,101084.59
2022-12-19T05:03:52.726Z,101077.84
2022-12-19T05:09:02.037Z,101078.52
2022-12-19T05:14:09.789Z,101068.13
2022-12-19T05:19:17.136Z,101076.84
2022-12-19T05:24:24.661Z,101082.83
2022-12-19T05:29:32.315Z,101082.67
2022-12-19T05:34:39.910Z,101080.05
2022-12-19T05:39:47.226Z,101079.67
2022-12-19T05:44:54.840Z,101076.18
2022-12-19T05:50:02.715Z,101077.39
2022-12-19T05:55:14.293Z,101085.04
2022-12-19T06:00:22.598Z,101085.52
2022-12-19T06:05:30.076Z,101077.75
2022-12-19T06:10:37.590Z,101073.31
2022-12-19T06:15:45.330Z,101065.25
2022-12-19T06:21:00.491Z,101055.02
2022-12-19T06:26:14.256Z,101054.98
2022-12-19T06:31:26.585Z,101057.51
2022-12-19T06:36:34.261Z,101063.67
2022-12-19T06:43:26.463Z,101056.70
2022-12-19T06:48:33.682Z,101054.56
2022-12-19T06:53:40.835Z,101049.00
2022-12-19T06:58:48.776Z,101053.77
2022-12-19T07:03:57.284Z,101045.72
2022-12-19T07:09:04.649Z,101048.36
2022-12-19T07:14:11.967Z,101048.50
2022-12-19T07:19:20.077Z,101047.03
2022-12-19T07:24:27.618Z,101050.13
2022-12-19T07:29:34.904Z,101049.05
2022-12-19T07:34:42.260Z,101044.36
2022-12-19T07:39:50.444Z,101044.83
2022-12-19T07:44:57.881Z,101053.74
2022-12-19T07:50:05.485Z,101050.54
2022-12-19T07:55:13.985Z,101038.75
2022-12-19T08:00:22.818Z,101039.95
2022-12-19T08:05:31.095Z,101035.39
2022-12-19T08:10:38.476Z,101038.22
2022-12-19T08:15:45.843Z,101036.95
2022-12-19T08:20:53.972Z,101031.88
2022-12-19T08:26:05.350Z,101023.20
2022-12-19T08:31:15.071Z,101015.50
2022-12-19T08:36:23.027Z,101011.30
2022-12-19T08:41:30.575Z,101010.66
2022-12-19T08:46:38.542Z,101002.20
2022-12-19T08:51:46.123Z,100989.05
2022-12-19T08:56:53.321Z,100976.52
2022-12-19T09:02:01.301Z,100976.86
2022-12-19T09:07:08.967Z,100966.14
2022-12-19T09:12:17.585Z,100968.27
2022-12-19T09:17:24.930Z,100979.59
2022-12-19T09:22:32.657Z,100982.92
2022-12-19T09:28:17.518Z,100982.24
2022-12-19T09:33:07.576Z,100976.13
2022-12-19T09:38:18.939Z,100968.38
2022-12-19T09:43:41.458Z,100946.33
2022-12-19T09:48:55.882Z,100924.80
2022-12-19T09:54:09.301Z,100930.85
2022-12-19T09:59:39.952Z,100919.22
2022-12-19T10:04:58.136Z,100920.88
2022-12-19T10:10:24.210Z,100927.73
2022-12-19T10:16:01.419Z,100929.13
2022-12-19T10:21:08.390Z,100911.67
2022-12-19T10:26:22.190Z,100899.16
2022-12-19T10:31:40.789Z,100881.55
2022-12-19T10:42:37.303Z,100877.38
2022-12-19T10:47:48.148Z,100864.69
2022-12-19T10:53:07.910Z,100856.04
2022-12-19T10:58:21.994Z,100857.14
2022-12-19T11:03:29.826Z,100853.97
2022-12-19T11:08:38.932Z,100833.03
2022-12-19T11:30:43.363Z,100793.33
2022-12-19T11:36:56.121Z,100782.06
2022-12-19T11:42:11.757Z,100787.70
2022-12-19T11:47:46.836Z,100779.14
2022-12-19T11:53:06.636Z,100782.57
2022-12-19T11:58:17.402Z,100785.64
2022-12-19T12:04:01.088Z,100769.05
2022-12-19T12:12:53.341Z,100753.84
2022-12-19T12:28:24.355Z,100747.67
2022-12-19T12:31:07.375Z,100744.44
2022-12-19T12:32:00.733Z,100741.71
2022-12-19T12:35:29.214Z,100737.61
2022-12-19T12:44:33.289Z,100725.30
2022-12-19T12:49:45.907Z,100713.66
2022-12-19T12:54:55.224Z,100708.67
2022-12-19T13:00:26.533Z,100707.27
2022-12-19T13:05:41.054Z,100692.69
2022-12-19T13:10:59.197Z,100687.36
2022-12-19T13:16:44.711Z,100682.55
2022-12-19T13:22:17.354Z,100682.86
2022-12-19T13:27:42.675Z,100692.10
2022-12-19T13:33:11.503Z,100688.67
2022-12-19T13:39:48.574Z,100678.44
2022-12-19T13:43:57.450Z,100681.89
2022-12-19T13:49:08.009Z,100672.86
2022-12-19T13:54:47.194Z,100675.80
2022-12-19T14:00:00.031Z,100665.40
2022-12-19T14:05:33.896Z,100655.86
2022-12-19T14:11:36.001Z,100646.64
2022-12-19T14:16:20.539Z,100640.86
2022-12-19T14:22:05.620Z,100641.39
2022-12-19T14:28:25.747Z,100639.88
2022-12-19T14:33:39.569Z,100630.50
2022-12-19T14:39:25.485Z,100622.29
2022-12-19T14:52:35.006Z,100605.02
2022-12-19T14:53:17.516Z,100610.83
2022-12-19T14:56:13.690Z,100601.11
2022-12-19T15:01:09.149Z,100601.46
2022-12-19T15:07:09.126Z,100592.79
2022-12-19T15:13:47.380Z,100577.41
2022-12-19T15:17:50.643Z,100575.05
2022-12-19T15:22:58.045Z,100564.80
2022-12-19T15:28:10.667Z,100562.08
2022-12-19T15:33:18.915Z,100554.24
2022-12-19T15:38:26.520Z,100554.77
2022-12-19T15:44:02.396Z,100553.07
2022-12-19T15:49:01.331Z,100543.36
2022-12-19T15:54:38.688Z,100542.66
2022-12-19T15:59:38.257Z,100542.79
2022-12-19T16:04:47.187Z,100546.20
2022-12-19T16:09:55.691Z,100540.05
2022-12-19T16:15:04.867Z,100530.47
2022-12-19T16:20:20.605Z,100518.52
2022-12-19T16:25:32.840Z,100515.46
2022-12-19T16:30:40.538Z,100501.48
2022-12-19T16:36:05.297Z,100498.26
2022-12-19T16:44:25.873Z,100495.33
2022-12-19T16:49:33.755Z,100492.54
2022-12-19T16:54:42.050Z,100486.20
2022-12-19T16:59:49.804Z,100479.23
2022-12-19T17:04:57.708Z,100472.05
2022-12-19T17:10:08.390Z,100464.23
2022-12-19T17:15:27.252Z,100465.61
2022-12-19T17:20:39.617Z,100462.90
2022-12-19T17:25:47.765Z,100454.91
2022-12-19T17:31:00.330Z,100458.30
2022-12-19T17:36:12.929Z,100462.88
2022-12-19T17:41:20.167Z,100466.77
2022-12-19T17:46:28.055Z,100458.41
2022-12-19T17:51:35.663Z,100445.34
2022-12-19T17:56:44.644Z,100435.30
2022-12-19T18:01:52.503Z,100437.52
2022-12-19T18:06:59.920Z,100433.09
2022-12-19T18:12:07.690Z,100434.45
2022-12-19T18:17:17.516Z,100431.55
2022-12-19T18:22:25.198Z,100424.39
2022-12-19T18:27:32.197Z,100425.20
2022-12-19T18:32:37.658Z,100409.70
2022-12-19T18:43:13.342Z,100402.77
2022-12-19T18:48:26.352Z,100399.88
2022-12-19T18:53:36.026Z,100385.76
2022-12-19T18:58:44.195Z,100377.07
2022-12-19T19:03:56.359Z,100373.67
2022-12-19T19:09:04.105Z,100370.77
2022-12-19T19:14:11.805Z,100362.45
2022-12-19T19:19:20.989Z,100358.19
2022-12-19T19:24:28.541Z,100348.33
2022-12-19T19:29:35.983Z,100344.41
2022-12-19T19:34:44.616Z,100346.96
2022-12-19T19:39:51.865Z,100338.27
2022-12-19T19:44:59.489Z,100338.27
2022-12-19T19:50:07.968Z,100333.11
2022-12-19T19:55:16.299Z,100334.62
2022-12-19T20:00:24.948Z,100340.74
2022-12-19T20:05:32.112Z,100335.13
2022-12-19T20:10:39.300Z,100336.62
2022-12-19T20:15:49.869Z,100328.94
2022-12-19T20:20:58.083Z,100325.50
2022-12-19T20:26:06.680Z,100318.33
2022-12-19T20:31:14.370Z,100316.60
2022-12-19T20:36:22.572Z,100314.52
2022-12-19T20:41:30.057Z,100306.64
2022-12-19T20:46:37.541Z,100304.40
2022-12-19T20:51:47.376Z,100301.95
2022-12-19T20:56:54.979Z,100296.41
2022-12-19T21:02:02.979Z,100279.40
2022-12-19T21:07:10.397Z,100276.40
2022-12-19T21:12:18.171Z,100279.55
2022-12-19T21:17:25.595Z,100284.25
2022-12-19T21:22:32.893Z,100286.05
2022-12-19T21:27:40.952Z,100277.06
2022-12-19T21:32:49.068Z,100270.77
2022-12-19T21:37:56.744Z,100270.31
2022-12-19T21:43:11.150Z,100259.64
2022-12-19T21:48:20.004Z,100243.34
2022-12-19T21:53:27.497Z,100242.08
2022-12-19T21:58:34.944Z,100237.42
2022-12-19T22:03:42.935Z,100227.82
2022-12-19T22:08:50.677Z,100224.05
2022-12-19T22:13:59.912Z,100216.33
2022-12-19T22:19:08.350Z,100210.85
2022-12-19T22:24:17.425Z,100202.09
2022-12-19T22:29:25.054Z,100203.27
2022-12-19T22:34:32.470Z,100203.88
2022-12-19T22:39:39.972Z,100190.91
2022-12-19T22:44:48.941Z,100185.48
2022-12-19T22:49:56.482Z,100177.34
2022-12-19T22:55:03.662Z,100177.23
2022-12-19T23:00:11.994Z,100179.55
2022-12-19T23:05:20.047Z,100182.40
2022-12-19T23:10:27.412Z,100177.33
2022-12-19T23:15:37.442Z,100169.02
2022-12-19T23:20:45.566Z,100160.55
2022-12-19T23:25:53.451Z,100154.66
2022-12-19T23:31:10.150Z,100154.95
2022-12-19T23:36:27.615Z,100146.00
2022-12-19T23:41:45.881Z,100139.08
2022-12-19T23:46:59.081Z,100134.99
2022-12-19T23:52:09.897Z,100133.50
2022-12-19T23:57:17.071Z,100132.04
